sensor_id;sensor_type;location;lat;lon;timestamp;pressure;altitude;pressure_sealevel;temperature;humidity
11676;BME280;5894;42.768;23.404;2023-03-13T00:00:56;95931.09;;;2.49;100.00
11676;BME280;5894;42.768;23.404;2023-03-13T00:03:23;95942.97;;;2.62;100.00
11676;BME280;5894;42.768;23.404;2023-03-13T00:05:54;95891.44;;;2.20;100.00
11676;BME280;5894;42.768;23.404;2023-03-13T00:08:21;95940.06;;;2.37;100.00
11676;BME280;5894;42.768;23.404;2023-03-13T00:10:49;95938.91;;;2.28;100.00
11676;BME280;5894;42.768;23.404;2023-03-13T00:13:16;95943.56;;;2.26;100.00
11676;BME280;5894;42.768;23.404;2023-03-13T00:15:43;95943.69;;;2.36;100.00
11676;BME280;5894;42.768;23.404;2023-03-13T00:18:10;95943.78;;;2.24;100.00
11676;BME280;5894;42.768;23.404;2023-03-13T00:20:36;95944.25;;;2.21;100.00
11676;BME280;5894;42.768;23.404;2023-03-13T00:23:03;95771.50;;;1.23;100.00
11676;BME280;5894;42.768;23.404;2023-03-13T00:25:30;95949.78;;;2.25;100.00
11676;BME280;5894;42.768;23.404;2023-03-13T00:27:58;95952.56;;;2.18;100.00
11676;BME280;5894;42.768;23.404;2023-03-13T00:30:25;95964.59;;;2.24;100.00
11676;BME280;5894;42.768;23.404;2023-03-13T00:32:52;95958.66;;;2.29;100.00
11676;BME280;5894;42.768;23.404;2023-03-13T00:35:19;95957.41;;;2.31;100.00
11676;BME280;5894;42.768;23.404;2023-03-13T00:37:46;95952.59;;;2.40;100.00
11676;BME280;5894;42.768;23.404;2023-03-13T00:40:13;95945.50;;;2.35;100.00
11676;BME280;5894;42.768;23.404;2023-03-13T00:42:40;95954.03;;;2.31;100.00
11676;BME280;5894;42.768;23.404;2023-03-13T00:45:09;95953.47;;;2.29;100.00
11676;BME280;5894;42.768;23.404;2023-03-13T00:47:36;95953.97;;;2.26;100.00
11676;BME280;5894;42.768;23.404;2023-03-13T00:50:03;95956.84;;;2.29;100.00
11676;BME280;5894;42.768;23.404;2023-03-13T00:52:30;95955.31;;;2.28;100.00
11676;BME280;5894;42.768;23.404;2023-03-13T00:54:56;95966.19;;;2.25;100.00
11676;BME280;5894;42.768;23.404;2023-03-13T00:57:23;95950.25;;;2.21;100.00
11676;BME280;5894;42.768;23.404;2023-03-13T00:59:50;95900.38;;;1.91;100.00
11676;BME280;5894;42.768;23.404;2023-03-13T01:02:18;95917.25;;;2.05;100.00
11676;BME280;5894;42.768;23.404;2023-03-13T01:04:45;95931.44;;;2.14;100.00
11676;BME280;5894;42.768;23.404;2023-03-13T01:07:12;95912.94;;;1.94;100.00
11676;BME280;5894;42.768;23.404;2023-03-13T01:09:38;95950.72;;;2.18;100.00
11676;BME280;5894;42.768;23.404;2023-03-13T01:12:06;95946.56;;;2.17;100.00
11676;BME280;5894;42.768;23.404;2023-03-13T01:14:33;95949.16;;;2.17;100.00
11676;BME280;5894;42.768;23.404;2023-03-13T01:16:59;95940.72;;;2.27;100.00
11676;BME280;5894;42.768;23.404;2023-03-13T01:19:28;95928.13;;;2.02;100.00
11676;BME280;5894;42.768;23.404;2023-03-13T01:21:55;95946.81;;;2.16;100.00
11676;BME280;5894;42.768;23.404;2023-03-13T01:24:23;95946.66;;;1.89;100.00
11676;BME280;5894;42.768;23.404;2023-03-13T01:26:50;95942.72;;;1.87;100.00
11676;BME280;5894;42.768;23.404;2023-03-13T01:29:17;95948.78;;;1.92;100.00
11676;BME280;5894;42.768;23.404;2023-03-13T01:31:44;95958.50;;;1.97;100.00
11676;BME280;5894;42.768;23.404;2023-03-13T01:34:10;95956.25;;;1.72;100.00
11676;BME280;5894;42.768;23.404;2023-03-13T01:36:39;95945.59;;;1.57;100.00
11676;BME280;5894;42.768;23.404;2023-03-13T01:39:06;95945.84;;;1.55;100.00
11676;BME280;5894;42.768;23.404;2023-03-13T01:41:32;95955.88;;;1.63;100.00
11676;BME280;5894;42.768;23.404;2023-03-13T01:44:00;95963.91;;;1.62;100.00
11676;BME280;5894;42.768;23.404;2023-03-13T01:46:36;95975.53;;;1.59;100.00
11676;BME280;5894;42.768;23.404;2023-03-13T01:49:25;95974.28;;;1.62;100.00
11676;BME280;5894;42.768;23.404;2023-03-13T01:52:09;95967.06;;;1.64;100.00
11676;BME280;5894;42.768;23.404;2023-03-13T01:54:54;95954.63;;;1.66;100.00
11676;BME280;5894;42.768;23.404;2023-03-13T01:57:26;95944.59;;;1.58;100.00
11676;BME280;5894;42.768;23.404;2023-03-13T01:59:57;95954.69;;;1.71;100.00
11676;BME280;5894;42.768;23.404;2023-03-13T02:02:27;95965.25;;;1.64;100.00
11676;BME280;5894;42.768;23.404;2023-03-13T02:04:58;95922.66;;;1.37;100.00
11676;BME280;5894;42.768;23.404;2023-03-13T02:07:35;95966.25;;;1.63;100.00
11676;BME280;5894;42.768;23.404;2023-03-13T02:10:06;95961.84;;;1.80;100.00
11676;BME280;5894;42.768;23.404;2023-03-13T02:12:36;95878.88;;;1.12;100.00
11676;BME280;5894;42.768;23.404;2023-03-13T02:15:08;95978.50;;;1.34;100.00
11676;BME280;5894;42.768;23.404;2023-03-13T02:17:35;95977.38;;;1.02;100.00
11676;BME280;5894;42.768;23.404;2023-03-13T02:20:04;95978.00;;;0.81;100.00
11676;BME280;5894;42.768;23.404;2023-03-13T02:22:37;95972.50;;;0.54;100.00
11676;BME280;5894;42.768;23.404;2023-03-13T02:25:09;95987.19;;;0.36;100.00
11676;BME280;5894;42.768;23.404;2023-03-13T02:27:40;95981.22;;;0.24;100.00
11676;BME280;5894;42.768;23.404;2023-03-13T02:30:09;95991.38;;;0.26;100.00
11676;BME280;5894;42.768;23.404;2023-03-13T02:32:37;95988.31;;;0.41;100.00
11676;BME280;5894;42.768;23.404;2023-03-13T02:35:08;95952.22;;;0.16;100.00
11676;BME280;5894;42.768;23.404;2023-03-13T02:37:36;95999.72;;;0.51;100.00
11676;BME280;5894;42.768;23.404;2023-03-13T02:40:08;96017.97;;;0.68;100.00
11676;BME280;5894;42.768;23.404;2023-03-13T02:42:37;96004.06;;;0.62;100.00
11676;BME280;5894;42.768;23.404;2023-03-13T02:45:07;96023.59;;;0.77;100.00
11676;BME280;5894;42.768;23.404;2023-03-13T02:47:34;96035.69;;;0.83;100.00
11676;BME280;5894;42.768;23.404;2023-03-13T02:50:01;96020.88;;;0.83;100.00
11676;BME280;5894;42.768;23.404;2023-03-13T02:52:31;96000.47;;;0.75;100.00
11676;BME280;5894;42.768;23.404;2023-03-13T02:55:05;96002.16;;;0.81;100.00
11676;BME280;5894;42.768;23.404;2023-03-13T02:57:34;96030.66;;;1.04;100.00
11676;BME280;5894;42.768;23.404;2023-03-13T03:00:00;96028.59;;;1.18;100.00
11676;BME280;5894;42.768;23.404;2023-03-13T03:02:32;96031.97;;;1.19;100.00
11676;BME280;5894;42.768;23.404;2023-03-13T03:04:59;96031.41;;;1.17;100.00
11676;BME280;5894;42.768;23.404;2023-03-13T03:07:26;96037.16;;;1.19;100.00
11676;BME280;5894;42.768;23.404;2023-03-13T03:09:53;96032.41;;;1.27;100.00
11676;BME280;5894;42.768;23.404;2023-03-13T03:12:20;96025.16;;;1.29;100.00
11676;BME280;5894;42.768;23.404;2023-03-13T03:14:47;96037.75;;;1.21;100.00
11676;BME280;5894;42.768;23.404;2023-03-13T03:17:14;96026.97;;;0.77;100.00
11676;BME280;5894;42.768;23.404;2023-03-13T03:19:42;96057.88;;;1.02;100.00
11676;BME280;5894;42.768;23.404;2023-03-13T03:22:09;96065.69;;;0.90;100.00
11676;BME280;5894;42.768;23.404;2023-03-13T03:24:36;96010.19;;;0.56;100.00
11676;BME280;5894;42.768;23.404;2023-03-13T03:27:03;96024.75;;;0.69;100.00
11676;BME280;5894;42.768;23.404;2023-03-13T03:29:37;96068.06;;;1.03;100.00
11676;BME280;5894;42.768;23.404;2023-03-13T03:32:05;96074.91;;;1.09;100.00
11676;BME280;5894;42.768;23.404;2023-03-13T03:34:32;96058.69;;;1.02;100.00
11676;BME280;5894;42.768;23.404;2023-03-13T03:37:00;96057.31;;;1.00;100.00
11676;BME280;5894;42.768;23.404;2023-03-13T03:39:28;96064.91;;;0.90;100.00
11676;BME280;5894;42.768;23.404;2023-03-13T03:41:55;96071.13;;;0.77;100.00
11676;BME280;5894;42.768;23.404;2023-03-13T03:44:23;96086.47;;;0.67;100.00
11676;BME280;5894;42.768;23.404;2023-03-13T03:46:54;96101.13;;;0.73;100.00
11676;BME280;5894;42.768;23.404;2023-03-13T03:49:23;96103.72;;;0.73;100.00
11676;BME280;5894;42.768;23.404;2023-03-13T03:51:50;96099.81;;;0.82;100.00
11676;BME280;5894;42.768;23.404;2023-03-13T03:54:24;96107.56;;;0.94;100.00
11676;BME280;5894;42.768;23.404;2023-03-13T03:56:51;96099.00;;;0.82;100.00
11676;BME280;5894;42.768;23.404;2023-03-13T03:59:18;96105.53;;;0.84;100.00
11676;BME280;5894;42.768;23.404;2023-03-13T04:01:54;96115.47;;;0.87;100.00
11676;BME280;5894;42.768;23.404;2023-03-13T04:04:23;96114.69;;;0.87;100.00
11676;BME280;5894;42.768;23.404;2023-03-13T04:06:57;96116.03;;;0.89;100.00
11676;BME280;5894;42.768;23.404;2023-03-13T04:09:27;96120.78;;;0.81;100.00
11676;BME280;5894;42.768;23.404;2023-03-13T04:11:54;96129.81;;;0.90;100.00
11676;BME280;5894;42.768;23.404;2023-03-13T04:14:21;96134.78;;;0.91;100.00
11676;BME280;5894;42.768;23.404;2023-03-13T04:16:48;96138.19;;;0.92;100.00
11676;BME280;5894;42.768;23.404;2023-03-13T04:19:15;96140.06;;;0.85;100.00
11676;BME280;5894;42.768;23.404;2023-03-13T04:21:42;96139.28;;;0.84;100.00
11676;BME280;5894;42.768;23.404;2023-03-13T04:24:13;96066.59;;;0.38;100.00
11676;BME280;5894;42.768;23.404;2023-03-13T04:26:43;96146.75;;;0.81;100.00
11676;BME280;5894;42.768;23.404;2023-03-13T04:29:11;96149.94;;;0.83;100.00
11676;BME280;5894;42.768;23.404;2023-03-13T04:31:56;96142.91;;;0.83;100.00
11676;BME280;5894;42.768;23.404;2023-03-13T04:34:49;96162.19;;;0.76;100.00
11676;BME280;5894;42.768;23.404;2023-03-13T04:37:40;96181.97;;;0.77;100.00
11676;BME280;5894;42.768;23.404;2023-03-13T04:40:22;96174.75;;;0.79;100.00
11676;BME280;5894;42.768;23.404;2023-03-13T04:42:50;96161.28;;;0.58;100.00
11676;BME280;5894;42.768;23.404;2023-03-13T04:45:35;96173.56;;;0.63;100.00
11676;BME280;5894;42.768;23.404;2023-03-13T04:48:22;96186.91;;;0.66;100.00
11676;BME280;5894;42.768;23.404;2023-03-13T04:51:18;96181.72;;;0.66;100.00
11676;BME280;5894;42.768;23.404;2023-03-13T04:53:54;96185.53;;;0.64;100.00
11676;BME280;5894;42.768;23.404;2023-03-13T04:56:47;96187.25;;;0.70;100.00
11676;BME280;5894;42.768;23.404;2023-03-13T04:59:36;96190.19;;;0.62;100.00
11676;BME280;5894;42.768;23.404;2023-03-13T05:02:34;96195.28;;;0.68;100.00
11676;BME280;5894;42.768;23.404;2023-03-13T05:05:21;96183.72;;;0.53;100.00
11676;BME280;5894;42.768;23.404;2023-03-13T05:08:10;96191.41;;;0.59;100.00
11676;BME280;5894;42.768;23.404;2023-03-13T05:11:00;96180.47;;;0.57;100.00
11676;BME280;5894;42.768;23.404;2023-03-13T05:13:53;96209.69;;;0.64;100.00
11676;BME280;5894;42.768;23.404;2023-03-13T05:16:30;96211.72;;;0.62;100.00
11676;BME280;5894;42.768;23.404;2023-03-13T05:19:11;96211.75;;;0.74;100.00
11676;BME280;5894;42.768;23.404;2023-03-13T05:21:58;96216.94;;;0.74;100.00
11676;BME280;5894;42.768;23.404;2023-03-13T05:25:04;96223.28;;;0.78;100.00
11676;BME280;5894;42.768;23.404;2023-03-13T05:27:54;96231.41;;;0.82;100.00
11676;BME280;5894;42.768;23.404;2023-03-13T05:30:24;96225.75;;;0.85;100.00
11676;BME280;5894;42.768;23.404;2023-03-13T05:33:04;96224.88;;;0.79;100.00
11676;BME280;5894;42.768;23.404;2023-03-13T05:35:41;96179.66;;;0.57;100.00
11676;BME280;5894;42.768;23.404;2023-03-13T05:38:40;96224.19;;;0.95;100.00
11676;BME280;5894;42.768;23.404;2023-03-13T05:41:17;96225.31;;;0.88;100.00
11676;BME280;5894;42.768;23.404;2023-03-13T05:44:07;96240.50;;;1.02;100.00
11676;BME280;5894;42.768;23.404;2023-03-13T05:46:54;96239.88;;;0.77;100.00
11676;BME280;5894;42.768;23.404;2023-03-13T05:49:41;96243.34;;;0.59;100.00
11676;BME280;5894;42.768;23.404;2023-03-13T05:52:33;96234.56;;;0.42;100.00
11676;BME280;5894;42.768;23.404;2023-03-13T05:55:23;96254.81;;;0.52;100.00
11676;BME280;5894;42.768;23.404;2023-03-13T05:58:06;96246.72;;;0.60;100.00
11676;BME280;5894;42.768;23.404;2023-03-13T06:01:05;96251.00;;;0.66;100.00
11676;BME280;5894;42.768;23.404;2023-03-13T06:03:38;96185.50;;;0.11;100.00
11676;BME280;5894;42.768;23.404;2023-03-13T06:06:07;96252.34;;;0.57;100.00
11676;BME280;5894;42.768;23.404;2023-03-13T06:08:39;96256.41;;;0.64;100.00
11676;BME280;5894;42.768;23.404;2023-03-13T06:11:06;96255.19;;;0.67;100.00
11676;BME280;5894;42.768;23.404;2023-03-13T06:13:33;96253.94;;;0.58;100.00
11676;BME280;5894;42.768;23.404;2023-03-13T06:16:07;96254.41;;;0.36;100.00
11676;BME280;5894;42.768;23.404;2023-03-13T06:18:43;96250.41;;;0.22;100.00
11676;BME280;5894;42.768;23.404;2023-03-13T06:21:12;96252.00;;;0.23;100.00
11676;BME280;5894;42.768;23.404;2023-03-13T06:23:39;96263.47;;;0.16;100.00
11676;BME280;5894;42.768;23.404;2023-03-13T06:26:06;96263.88;;;0.31;100.00
11676;BME280;5894;42.768;23.404;2023-03-13T06:28:33;96257.06;;;0.48;100.00
11676;BME280;5894;42.768;23.404;2023-03-13T06:31:00;96256.47;;;0.46;100.00
11676;BME280;5894;42.768;23.404;2023-03-13T06:33:29;96241.38;;;0.55;100.00
11676;BME280;5894;42.768;23.404;2023-03-13T06:35:56;96234.91;;;0.76;100.00
11676;BME280;5894;42.768;23.404;2023-03-13T06:38:25;96235.25;;;0.79;100.00
11676;BME280;5894;42.768;23.404;2023-03-13T06:40:53;96244.19;;;0.95;100.00
11676;BME280;5894;42.768;23.404;2023-03-13T06:43:20;96246.34;;;1.09;100.00
11676;BME280;5894;42.768;23.404;2023-03-13T06:45:47;96243.88;;;1.26;100.00
11676;BME280;5894;42.768;23.404;2023-03-13T06:48:14;96251.31;;;1.58;100.00
11676;BME280;5894;42.768;23.404;2023-03-13T06:50:41;96258.53;;;1.79;100.00
11676;BME280;5894;42.768;23.404;2023-03-13T06:53:13;96258.66;;;1.84;100.00
11676;BME280;5894;42.768;23.404;2023-03-13T06:55:42;96229.13;;;1.78;100.00
11676;BME280;5894;42.768;23.404;2023-03-13T06:58:09;96245.69;;;2.12;100.00
11676;BME280;5894;42.768;23.404;2023-03-13T07:00:36;96257.97;;;2.29;100.00
11676;BME280;5894;42.768;23.404;2023-03-13T07:03:04;96249.75;;;2.48;100.00
11676;BME280;5894;42.768;23.404;2023-03-13T07:05:31;96245.38;;;2.66;100.00
11676;BME280;5894;42.768;23.404;2023-03-13T07:07:58;96236.16;;;2.75;100.00
11676;BME280;5894;42.768;23.404;2023-03-13T07:10:25;96245.03;;;2.90;100.00
11676;BME280;5894;42.768;23.404;2023-03-13T07:12:53;96245.09;;;2.95;100.00
11676;BME280;5894;42.768;23.404;2023-03-13T07:15:20;96210.94;;;2.64;100.00
11676;BME280;5894;42.768;23.404;2023-03-13T07:17:47;96228.59;;;2.90;100.00
11676;BME280;5894;42.768;23.404;2023-03-13T07:20:14;96233.78;;;3.07;100.00
11676;BME280;5894;42.768;23.404;2023-03-13T07:22:40;96242.16;;;3.25;100.00
11676;BME280;5894;42.768;23.404;2023-03-13T07:25:08;96244.34;;;3.33;100.00
11676;BME280;5894;42.768;23.404;2023-03-13T07:27:35;96241.53;;;3.35;100.00
11676;BME280;5894;42.768;23.404;2023-03-13T07:30:05;96238.03;;;3.46;100.00
11676;BME280;5894;42.768;23.404;2023-03-13T07:32:32;96239.06;;;3.45;100.00
11676;BME280;5894;42.768;23.404;2023-03-13T07:34:59;96236.53;;;3.50;100.00
11676;BME280;5894;42.768;23.404;2023-03-13T07:37:27;96223.66;;;3.44;100.00
11676;BME280;5894;42.768;23.404;2023-03-13T07:39:54;96206.13;;;3.39;100.00
11676;BME280;5894;42.768;23.404;2023-03-13T07:42:21;96245.66;;;3.69;100.00
11676;BME280;5894;42.768;23.404;2023-03-13T07:44:48;96251.00;;;3.80;100.00
11676;BME280;5894;42.768;23.404;2023-03-13T07:47:16;96242.03;;;3.92;100.00
11676;BME280;5894;42.768;23.404;2023-03-13T07:49:43;96186.13;;;3.66;100.00
11676;BME280;5894;42.768;23.404;2023-03-13T07:52:11;96236.75;;;4.09;100.00
11676;BME280;5894;42.768;23.404;2023-03-13T07:54:38;96234.56;;;4.23;100.00
11676;BME280;5894;42.768;23.404;2023-03-13T07:57:04;96223.13;;;4.29;100.00
11676;BME280;5894;42.768;23.404;2023-03-13T07:59:31;96221.72;;;4.43;100.00
11676;BME280;5894;42.768;23.404;2023-03-13T08:01:58;96225.72;;;4.51;100.00
11676;BME280;5894;42.768;23.404;2023-03-13T08:04:26;96223.16;;;4.56;100.00
11676;BME280;5894;42.768;23.404;2023-03-13T08:06:53;96225.56;;;4.62;100.00
11676;BME280;5894;42.768;23.404;2023-03-13T08:09:21;96230.09;;;4.72;100.00
11676;BME280;5894;42.768;23.404;2023-03-13T08:11:48;96215.78;;;4.79;98.75
11676;BME280;5894;42.768;23.404;2023-03-13T08:14:14;96218.16;;;4.81;99.48
11676;BME280;5894;42.768;23.404;2023-03-13T08:16:41;96109.75;;;4.20;100.00
11676;BME280;5894;42.768;23.404;2023-03-13T08:19:09;96220.59;;;4.88;100.00
11676;BME280;5894;42.768;23.404;2023-03-13T08:21:37;96221.56;;;4.82;100.00
11676;BME280;5894;42.768;23.404;2023-03-13T08:24:05;96218.78;;;4.93;99.45
11676;BME280;5894;42.768;23.404;2023-03-13T08:26:33;96216.72;;;4.95;99.11
11676;BME280;5894;42.768;23.404;2023-03-13T08:29:02;96216.50;;;5.02;99.11
11676;BME280;5894;42.768;23.404;2023-03-13T08:31:30;96224.88;;;5.04;93.58
11676;BME280;5894;42.768;23.404;2023-03-13T08:33:58;96226.47;;;5.05;97.23
11676;BME280;5894;42.768;23.404;2023-03-13T08:36:26;96208.59;;;4.92;97.08
11676;BME280;5894;42.768;23.404;2023-03-13T08:38:58;96218.56;;;5.00;97.83
11676;BME280;5894;42.768;23.404;2023-03-13T08:41:27;96110.22;;;4.43;98.77
11676;BME280;5894;42.768;23.404;2023-03-13T08:43:54;96217.59;;;5.06;100.00
11676;BME280;5894;42.768;23.404;2023-03-13T08:46:22;96207.94;;;5.11;99.37
11676;BME280;5894;42.768;23.404;2023-03-13T08:48:50;96219.50;;;5.15;100.00
11676;BME280;5894;42.768;23.404;2023-03-13T08:51:18;96213.00;;;5.23;100.00
11676;BME280;5894;42.768;23.404;2023-03-13T08:53:45;96198.16;;;5.29;100.00
11676;BME280;5894;42.768;23.404;2023-03-13T08:56:15;96205.28;;;5.38;99.43
11676;BME280;5894;42.768;23.404;2023-03-13T08:58:42;96203.97;;;5.41;99.06
11676;BME280;5894;42.768;23.404;2023-03-13T09:01:11;96196.66;;;5.43;98.15
11676;BME280;5894;42.768;23.404;2023-03-13T09:03:38;96207.41;;;5.51;97.38
11676;BME280;5894;42.768;23.404;2023-03-13T09:06:06;96208.00;;;5.59;96.10
11676;BME280;5894;42.768;23.404;2023-03-13T09:08:33;96211.41;;;5.59;95.75
11676;BME280;5894;42.768;23.404;2023-03-13T09:11:02;96205.13;;;5.60;95.85
11676;BME280;5894;42.768;23.404;2023-03-13T09:13:32;96206.72;;;5.66;91.30
11676;BME280;5894;42.768;23.404;2023-03-13T09:16:01;96199.69;;;5.72;94.02
11676;BME280;5894;42.768;23.404;2023-03-13T09:18:28;96198.13;;;5.76;95.08
11676;BME280;5894;42.768;23.404;2023-03-13T09:20:55;96194.50;;;5.82;93.90
11676;BME280;5894;42.768;23.404;2023-03-13T09:23:23;96199.03;;;5.92;91.01
11676;BME280;5894;42.768;23.404;2023-03-13T09:25:52;96102.13;;;5.24;91.59
11676;BME280;5894;42.768;23.404;2023-03-13T09:28:19;96209.56;;;6.02;87.92
11676;BME280;5894;42.768;23.404;2023-03-13T09:30:48;96204.31;;;6.02;87.20
11676;BME280;5894;42.768;23.404;2023-03-13T09:33:15;96210.59;;;6.01;90.35
11676;BME280;5894;42.768;23.404;2023-03-13T09:35:41;96210.59;;;6.01;92.12
11676;BME280;5894;42.768;23.404;2023-03-13T09:38:11;96205.34;;;6.06;83.56
11676;BME280;5894;42.768;23.404;2023-03-13T09:40:41;96198.53;;;6.05;82.22
11676;BME280;5894;42.768;23.404;2023-03-13T09:43:20;96195.38;;;5.98;82.35
11676;BME280;5894;42.768;23.404;2023-03-13T09:45:55;96189.13;;;6.04;81.42
11676;BME280;5894;42.768;23.404;2023-03-13T09:48:28;96203.53;;;6.01;81.17
11676;BME280;5894;42.768;23.404;2023-03-13T09:51:02;96182.03;;;5.99;85.36
11676;BME280;5894;42.768;23.404;2023-03-13T09:53:38;96192.31;;;6.11;81.65
11676;BME280;5894;42.768;23.404;2023-03-13T09:56:14;96189.44;;;6.12;81.13
11676;BME280;5894;42.768;23.404;2023-03-13T09:58:46;96189.44;;;6.17;78.91
11676;BME280;5894;42.768;23.404;2023-03-13T10:01:20;96087.13;;;5.57;80.62
11676;BME280;5894;42.768;23.404;2023-03-13T10:03:56;96180.03;;;6.26;81.71
11676;BME280;5894;42.768;23.404;2023-03-13T10:06:27;96170.63;;;6.31;83.23
11676;BME280;5894;42.768;23.404;2023-03-13T10:08:57;96164.84;;;6.39;85.29
11676;BME280;5894;42.768;23.404;2023-03-13T10:11:29;96152.28;;;6.41;86.25
11676;BME280;5894;42.768;23.404;2023-03-13T10:14:03;96161.22;;;6.50;88.09
11676;BME280;5894;42.768;23.404;2023-03-13T10:16:38;96145.25;;;6.61;86.71
11676;BME280;5894;42.768;23.404;2023-03-13T10:19:11;96143.16;;;6.74;87.85
11676;BME280;5894;42.768;23.404;2023-03-13T10:21:41;96142.84;;;6.85;85.03
11676;BME280;5894;42.768;23.404;2023-03-13T10:24:15;96131.31;;;6.96;86.31
11676;BME280;5894;42.768;23.404;2023-03-13T10:26:43;96128.94;;;7.10;86.01
11676;BME280;5894;42.768;23.404;2023-03-13T10:29:20;96132.34;;;7.21;81.75
11676;BME280;5894;42.768;23.404;2023-03-13T10:31:55;96106.91;;;7.06;83.06
11676;BME280;5894;42.768;23.404;2023-03-13T10:34:23;96127.59;;;7.33;83.82
11676;BME280;5894;42.768;23.404;2023-03-13T10:36:54;96130.16;;;7.48;80.57
11676;BME280;5894;42.768;23.404;2023-03-13T10:39:23;96111.53;;;7.50;84.13
11676;BME280;5894;42.768;23.404;2023-03-13T10:41:56;96098.72;;;7.43;76.61
11676;BME280;5894;42.768;23.404;2023-03-13T10:44:30;96107.28;;;7.59;79.23
11676;BME280;5894;42.768;23.404;2023-03-13T10:47:01;96120.16;;;7.60;79.13
11676;BME280;5894;42.768;23.404;2023-03-13T10:49:29;96077.69;;;7.53;76.99
11676;BME280;5894;42.768;23.404;2023-03-13T10:52:01;96103.03;;;7.78;74.99
11676;BME280;5894;42.768;23.404;2023-03-13T10:54:29;96015.56;;;7.33;77.85
11676;BME280;5894;42.768;23.404;2023-03-13T10:57:24;96087.19;;;7.93;79.42
11676;BME280;5894;42.768;23.404;2023-03-13T10:59:54;96091.34;;;8.04;80.69
11676;BME280;5894;42.768;23.404;2023-03-13T11:02:26;96096.56;;;8.09;82.11
11676;BME280;5894;42.768;23.404;2023-03-13T11:04:54;96085.47;;;8.18;80.28
11676;BME280;5894;42.768;23.404;2023-03-13T11:07:26;96036.19;;;7.99;79.79
11676;BME280;5894;42.768;23.404;2023-03-13T11:09:58;96057.38;;;8.13;76.89
11676;BME280;5894;42.768;23.404;2023-03-13T11:12:26;96067.81;;;8.28;77.98
11676;BME280;5894;42.768;23.404;2023-03-13T11:14:57;96030.31;;;8.18;74.88
11676;BME280;5894;42.768;23.404;2023-03-13T11:17:31;96054.84;;;8.42;73.53
11676;BME280;5894;42.768;23.404;2023-03-13T11:20:20;96062.63;;;8.52;72.23
11676;BME280;5894;42.768;23.404;2023-03-13T11:22:54;96055.75;;;8.61;73.87
11676;BME280;5894;42.768;23.404;2023-03-13T11:25:27;96045.41;;;8.70;76.26
11676;BME280;5894;42.768;23.404;2023-03-13T11:28:15;96050.09;;;8.73;76.60
11676;BME280;5894;42.768;23.404;2023-03-13T11:31:02;96061.66;;;8.77;73.98
11676;BME280;5894;42.768;23.404;2023-03-13T11:33:38;96040.84;;;8.80;74.12
11676;BME280;5894;42.768;23.404;2023-03-13T11:36:15;96034.75;;;8.85;73.46
11676;BME280;5894;42.768;23.404;2023-03-13T11:38:47;96027.00;;;8.70;76.92
11676;BME280;5894;42.768;23.404;2023-03-13T11:44:16;96023.22;;;9.05;73.36
11676;BME280;5894;42.768;23.404;2023-03-13T11:46:52;96008.91;;;9.16;73.05
11676;BME280;5894;42.768;23.404;2023-03-13T11:49:35;96001.75;;;9.22;73.58
11676;BME280;5894;42.768;23.404;2023-03-13T11:52:14;95995.34;;;9.28;79.00
11676;BME280;5894;42.768;23.404;2023-03-13T11:54:50;95962.31;;;9.16;78.29
11676;BME280;5894;42.768;23.404;2023-03-13T11:57:24;95987.19;;;9.48;76.16
11676;BME280;5894;42.768;23.404;2023-03-13T12:00:06;95982.72;;;9.48;73.66
11676;BME280;5894;42.768;23.404;2023-03-13T12:02:42;95985.63;;;9.47;69.55
11676;BME280;5894;42.768;23.404;2023-03-13T12:05:16;95978.38;;;9.57;70.25
11676;BME280;5894;42.768;23.404;2023-03-13T12:07:48;95986.84;;;9.54;72.59
11676;BME280;5894;42.768;23.404;2023-03-13T12:10:18;95969.06;;;9.65;75.53
11676;BME280;5894;42.768;23.404;2023-03-13T12:12:51;95958.94;;;9.72;67.90
11676;BME280;5894;42.768;23.404;2023-03-13T12:15:22;95960.25;;;9.75;66.50
11676;BME280;5894;42.768;23.404;2023-03-13T12:17:55;95951.84;;;9.73;69.49
11676;BME280;5894;42.768;23.404;2023-03-13T12:20:27;95960.09;;;9.85;67.84
11676;BME280;5894;42.768;23.404;2023-03-13T12:23:06;95928.28;;;9.63;66.71
11676;BME280;5894;42.768;23.404;2023-03-13T12:25:44;95962.50;;;9.81;66.82
11676;BME280;5894;42.768;23.404;2023-03-13T12:28:21;95956.66;;;9.84;67.54
11676;BME280;5894;42.768;23.404;2023-03-13T12:30:53;95943.50;;;9.84;68.77
11676;BME280;5894;42.768;23.404;2023-03-13T12:33:25;95938.41;;;9.88;70.84
11676;BME280;5894;42.768;23.404;2023-03-13T12:36:03;95957.91;;;10.06;66.59
11676;BME280;5894;42.768;23.404;2023-03-13T12:38:35;95953.91;;;10.08;69.47
11676;BME280;5894;42.768;23.404;2023-03-13T12:41:10;95931.56;;;10.06;69.97
11676;BME280;5894;42.768;23.404;2023-03-13T12:43:42;95940.94;;;10.30;69.35
11676;BME280;5894;42.768;23.404;2023-03-13T12:46:32;95941.16;;;10.48;69.46
11676;BME280;5894;42.768;23.404;2023-03-13T12:52:09;95952.72;;;10.93;65.95
11676;BME280;5894;42.768;23.404;2023-03-13T12:54:48;95843.56;;;10.20;66.25
11676;BME280;5894;42.768;23.404;2023-03-13T13:00:29;95953.19;;;11.36;63.54
11676;BME280;5894;42.768;23.404;2023-03-13T13:03:07;95953.97;;;11.36;62.33
11676;BME280;5894;42.768;23.404;2023-03-13T13:05:36;95950.94;;;11.29;58.87
11676;BME280;5894;42.768;23.404;2023-03-13T13:08:04;95951.94;;;11.20;57.95
11676;BME280;5894;42.768;23.404;2023-03-13T13:10:31;95940.19;;;11.12;56.53
11676;BME280;5894;42.768;23.404;2023-03-13T13:13:27;95944.53;;;11.08;58.24
11676;BME280;5894;42.768;23.404;2023-03-13T13:16:00;95937.97;;;11.06;60.32
11676;BME280;5894;42.768;23.404;2023-03-13T13:18:28;95898.91;;;10.66;56.44
11676;BME280;5894;42.768;23.404;2023-03-13T13:21:18;95950.28;;;11.10;58.41
11676;BME280;5894;42.768;23.404;2023-03-13T13:23:47;95940.88;;;11.04;59.01
11676;BME280;5894;42.768;23.404;2023-03-13T13:26:48;95916.47;;;10.98;64.23
11676;BME280;5894;42.768;23.404;2023-03-13T13:32:42;95920.56;;;11.18;60.18
11676;BME280;5894;42.768;23.404;2023-03-13T13:35:29;95923.28;;;11.27;56.97
11676;BME280;5894;42.768;23.404;2023-03-13T13:41:23;95912.03;;;11.21;58.62
11676;BME280;5894;42.768;23.404;2023-03-13T13:46:57;95900.44;;;11.09;57.96